createdAt,value
2023-05-07T00:01:00.743Z,0.20
2023-05-07T00:03:27.992Z,0.10
2023-05-07T00:05:54.596Z,0.50
2023-05-07T00:08:21.564Z,0.35
2023-05-07T00:10:48.124Z,0.10
2023-05-07T00:13:14.731Z,0.10
2023-05-07T00:15:41.422Z,0.10
2023-05-07T00:18:08.056Z,0.15
2023-05-07T00:20:36.218Z,0.10
2023-05-07T00:23:03.078Z,0.17
2023-05-07T00:25:29.738Z,0.20
2023-05-07T00:27:56.312Z,0.20
2023-05-07T00:30:22.839Z,0.20
2023-05-07T00:32:50.023Z,0.30
2023-05-07T00:35:16.784Z,0.30
2023-05-07T00:37:43.354Z,0.30
2023-05-07T00:40:10.685Z,1.77
2023-05-07T00:42:37.756Z,0.88
2023-05-07T00:45:04.663Z,1.80
2023-05-07T00:47:32.120Z,2.80
2023-05-07T00:49:59.443Z,4.40
2023-05-07T00:52:27.081Z,2.35
2023-05-07T00:54:54.545Z,1.63
2023-05-07T00:57:22.429Z,2.45
2023-05-07T00:59:49.556Z,1.40
2023-05-07T01:02:16.315Z,3.95
2023-05-07T01:04:42.870Z,4.35
2023-05-07T01:07:10.637Z,7.18
2023-05-07T01:09:37.816Z,3.10
2023-05-07T01:12:05.232Z,4.00
2023-05-07T01:14:33.989Z,3.83
2023-05-07T01:17:00.930Z,7.75
2023-05-07T01:19:31.147Z,3.78
2023-05-07T01:22:04.558Z,1.60
2023-05-07T01:24:37.243Z,2.75
2023-05-07T01:27:05.576Z,6.18
2023-05-07T01:29:33.949Z,2.95
2023-05-07T01:32:01.801Z,3.50
2023-05-07T01:34:31.420Z,5.53
2023-05-07T01:37:00.332Z,2.75
2023-05-07T01:39:29.084Z,3.05
2023-05-07T01:42:00.607Z,1.75
2023-05-07T01:44:28.367Z,2.47
2023-05-07T01:46:55.939Z,3.10
2023-05-07T01:49:22.598Z,3.90
2023-05-07T01:51:49.372Z,4.07
2023-05-07T01:54:16.363Z,3.28
2023-05-07T01:56:42.987Z,4.03
2023-05-07T01:59:09.987Z,4.30
2023-05-07T02:01:36.621Z,4.65
2023-05-07T02:04:03.500Z,3.67
2023-05-07T02:06:31.683Z,16.50
2023-05-07T02:09:03.394Z,3.65
2023-05-07T02:11:29.912Z,3.80
2023-05-07T02:13:56.751Z,5.28
2023-05-07T02:16:24.141Z,4.03
2023-05-07T02:18:51.755Z,3.75
2023-05-07T02:21:18.371Z,7.65
2023-05-07T02:23:45.136Z,4.97
2023-05-07T02:26:12.106Z,4.35
2023-05-07T02:28:38.703Z,5.95
2023-05-07T02:31:06.889Z,4.93
2023-05-07T02:33:35.750Z,4.60
2023-05-07T02:36:10.878Z,3.40
2023-05-07T02:38:44.274Z,6.97
2023-05-07T02:41:10.822Z,14.52
2023-05-07T02:43:37.465Z,5.03
2023-05-07T02:46:08.654Z,4.55
2023-05-07T02:48:39.117Z,6.70
2023-05-07T02:51:06.409Z,5.15
2023-05-07T02:53:34.313Z,7.25
2023-05-07T02:56:02.170Z,6.20
2023-05-07T02:58:28.759Z,4.55
2023-05-07T03:00:58.352Z,11.65
2023-05-07T03:03:38.874Z,8.57
2023-05-07T03:06:05.680Z,4.30
2023-05-07T03:08:32.439Z,6.05
2023-05-07T03:10:59.130Z,5.13
2023-05-07T03:13:26.162Z,6.38
2023-05-07T03:15:53.120Z,4.10
2023-05-07T03:18:19.796Z,5.50
2023-05-07T03:20:47.169Z,6.63
2023-05-07T03:23:13.772Z,5.43
2023-05-07T03:25:40.442Z,4.15
2023-05-07T03:28:07.280Z,3.67
2023-05-07T03:30:48.983Z,5.80
2023-05-07T03:33:15.544Z,6.60
2023-05-07T03:35:42.376Z,5.30
2023-05-07T03:38:10.001Z,7.57
2023-05-07T03:40:38.170Z,6.57
2023-05-07T03:43:05.556Z,8.38
2023-05-07T03:45:35.287Z,4.88
2023-05-07T03:48:12.835Z,5.28
2023-05-07T03:50:39.510Z,7.75
2023-05-07T03:53:07.100Z,5.22
2023-05-07T03:55:38.055Z,8.38
2023-05-07T03:58:05.121Z,7.10
2023-05-07T04:00:34.507Z,5.55
2023-05-07T04:03:01.191Z,5.53
2023-05-07T04:05:31.434Z,9.35
2023-05-07T04:08:03.038Z,5.97
2023-05-07T04:10:36.697Z,6.13
2023-05-07T04:13:07.750Z,5.32
2023-05-07T04:15:36.518Z,5.68
2023-05-07T04:18:05.190Z,4.90
2023-05-07T04:20:35.557Z,5.63
2023-05-07T04:23:03.434Z,4.63
2023-05-07T04:25:30.532Z,5.20
2023-05-07T04:28:05.184Z,7.28
2023-05-07T04:30:32.653Z,10.00
2023-05-07T04:32:59.336Z,5.13
2023-05-07T04:35:28.805Z,5.55
2023-05-07T04:37:55.887Z,6.15
2023-05-07T04:40:22.458Z,5.28
2023-05-07T04:42:49.247Z,10.45
2023-05-07T04:45:16.070Z,4.68
2023-05-07T04:47:45.349Z,4.53
2023-05-07T04:50:13.042Z,8.60
2023-05-07T04:52:41.066Z,4.30
2023-05-07T04:55:08.460Z,7.80
2023-05-07T04:57:40.410Z,3.53
2023-05-07T05:00:09.609Z,6.60
2023-05-07T05:02:38.107Z,7.18
2023-05-07T05:05:06.073Z,10.43
2023-05-07T05:07:32.686Z,11.15
2023-05-07T05:09:59.891Z,11.38
2023-05-07T05:12:26.570Z,17.15
2023-05-07T05:14:53.380Z,5.97
2023-05-07T05:17:19.983Z,6.50
2023-05-07T05:19:46.630Z,6.13
2023-05-07T05:22:13.466Z,8.38
2023-05-07T05:24:39.968Z,8.10
2023-05-07T05:27:06.720Z,7.85
2023-05-07T05:29:33.297Z,4.72
2023-05-07T05:32:00.263Z,7.13
2023-05-07T05:34:28.623Z,5.65
2023-05-07T05:36:56.220Z,5.80
2023-05-07T05:39:24.149Z,6.38
2023-05-07T05:41:51.063Z,6.68
2023-05-07T05:44:17.811Z,9.15
2023-05-07T05:46:44.633Z,5.38
2023-05-07T05:49:11.204Z,7.40
2023-05-07T05:51:38.569Z,5.93
2023-05-07T05:54:05.634Z,6.55
2023-05-07T05:56:33.078Z,7.85
2023-05-07T05:58:59.789Z,11.73
2023-05-07T06:01:26.611Z,4.80
2023-05-07T06:03:55.129Z,4.68
2023-05-07T06:06:22.304Z,7.15
2023-05-07T06:08:48.906Z,8.23
2023-05-07T06:11:21.082Z,5.25
2023-05-07T06:13:47.634Z,6.50
2023-05-07T06:16:15.187Z,6.45
2023-05-07T06:18:41.802Z,7.85
2023-05-07T06:21:08.860Z,8.20
2023-05-07T06:23:36.130Z,5.30
2023-05-07T06:26:03.078Z,6.32
2023-05-07T06:28:37.956Z,4.57
2023-05-07T06:31:30.991Z,6.95
2023-05-07T06:34:07.126Z,6.50
2023-05-07T06:36:37.299Z,6.10
2023-05-07T06:39:15.710Z,6.65
2023-05-07T06:41:42.202Z,8.77
2023-05-07T06:44:17.174Z,7.05
2023-05-07T06:46:47.960Z,9.45
2023-05-07T06:49:15.512Z,6.88
2023-05-07T06:51:42.467Z,6.95
2023-05-07T06:54:09.103Z,6.72
2023-05-07T06:56:38.319Z,8.40
2023-05-07T06:59:05.981Z,6.32
2023-05-07T07:01:36.908Z,7.15
2023-05-07T07:04:04.880Z,16.52
2023-05-07T07:06:32.749Z,8.25
2023-05-07T07:09:01.502Z,5.72
2023-05-07T07:11:28.860Z,7.13
2023-05-07T07:13:55.654Z,8.15
2023-05-07T07:16:23.259Z,5.38
2023-05-07T07:18:52.085Z,8.20
2023-05-07T07:21:20.190Z,7.18
2023-05-07T07:23:47.126Z,5.75
2023-05-07T07:26:13.832Z,5.05
2023-05-07T07:28:45.634Z,5.60
2023-05-07T07:31:14.498Z,10.43
2023-05-07T07:33:41.555Z,6.75
2023-05-07T07:36:08.851Z,6.63
2023-05-07T07:38:36.346Z,4.32
2023-05-07T07:41:03.979Z,7.97
2023-05-07T07:43:30.896Z,10.60
2023-05-07T07:45:57.715Z,8.38
2023-05-07T07:48:24.983Z,6.82
2023-05-07T07:50:54.560Z,5.50
2023-05-07T07:53:21.480Z,8.50
2023-05-07T07:55:48.336Z,6.55
2023-05-07T07:58:18.038Z,8.55
2023-05-07T08:00:44.711Z,8.45
2023-05-07T08:03:13.249Z,7.00
2023-05-07T08:05:44.346Z,8.20
2023-05-07T08:08:11.162Z,6.43
2023-05-07T08:10:40.147Z,6.78
2023-05-07T08:13:13.889Z,9.20
2023-05-07T08:15:42.038Z,8.30
2023-05-07T08:18:08.809Z,8.30
2023-05-07T08:20:40.249Z,7.90
2023-05-07T08:23:09.665Z,7.75
2023-05-07T08:25:38.443Z,7.55
2023-05-07T08:28:06.042Z,9.40
2023-05-07T08:30:33.820Z,7.22
2023-05-07T08:33:01.497Z,9.27
2023-05-07T08:35:28.962Z,9.98
2023-05-07T08:37:55.641Z,9.15
2023-05-07T08:40:27.648Z,10.73
2023-05-07T08:42:57.902Z,8.40
2023-05-07T08:45:25.275Z,10.48
2023-05-07T08:47:59.143Z,9.68
2023-05-07T08:50:29.412Z,11.10
2023-05-07T08:52:57.446Z,9.48
2023-05-07T08:55:25.262Z,9.65
2023-05-07T08:57:53.581Z,10.23
2023-05-07T09:00:20.435Z,9.43
2023-05-07T09:02:50.530Z,9.20
2023-05-07T09:05:17.400Z,8.57
2023-05-07T09:07:44.177Z,11.68
2023-05-07T09:10:13.980Z,10.60
2023-05-07T09:12:42.312Z,9.52
2023-05-07T09:15:11.145Z,10.52
2023-05-07T09:17:38.603Z,10.95
2023-05-07T09:20:09.327Z,9.48
2023-05-07T09:22:38.066Z,10.48
2023-05-07T09:25:09.397Z,13.45
2023-05-07T09:27:38.299Z,11.43
2023-05-07T09:30:08.200Z,9.98
2023-05-07T09:32:38.843Z,12.10
2023-05-07T09:35:07.130Z,15.63
2023-05-07T09:37:34.584Z,11.13
2023-05-07T09:40:01.590Z,13.82
2023-05-07T09:42:30.654Z,12.07
2023-05-07T09:45:01.027Z,10.55
2023-05-07T09:47:34.219Z,11.80
2023-05-07T09:50:06.469Z,12.25
2023-05-07T09:52:36.155Z,13.70
2023-05-07T09:55:06.962Z,11.35
2023-05-07T09:57:35.691Z,9.40
2023-05-07T10:00:07.212Z,9.65
2023-05-07T10:02:50.585Z,17.08
2023-05-07T10:05:23.453Z,12.73
2023-05-07T10:07:51.950Z,10.70
2023-05-07T10:10:19.550Z,12.73
2023-05-07T10:12:48.337Z,10.80
2023-05-07T10:15:22.385Z,10.17
2023-05-07T10:17:54.610Z,9.48
2023-05-07T10:20:22.528Z,12.07
2023-05-07T10:22:51.689Z,9.15
2023-05-07T10:25:29.184Z,7.82
2023-05-07T10:28:00.627Z,9.75
2023-05-07T10:31:07.086Z,9.27
2023-05-07T10:33:40.591Z,9.63
2023-05-07T10:36:08.967Z,6.72
2023-05-07T10:38:36.102Z,9.15
2023-05-07T10:41:05.551Z,9.35
2023-05-07T10:43:42.839Z,8.10
2023-05-07T10:46:13.139Z,8.68
2023-05-07T10:49:01.378Z,7.50
2023-05-07T10:51:33.410Z,8.25
2023-05-07T10:54:10.978Z,8.27
2023-05-07T10:56:44.082Z,6.45
2023-05-07T10:59:21.913Z,5.85
2023-05-07T11:01:56.045Z,8.57
2023-05-07T11:04:32.491Z,7.20
2023-05-07T11:07:26.342Z,10.50
2023-05-07T11:10:05.300Z,8.32
2023-05-07T11:12:51.829Z,9.10
2023-05-07T11:15:38.602Z,7.00
2023-05-07T11:18:12.913Z,6.93
2023-05-07T11:20:58.350Z,7.63
2023-05-07T11:23:41.405Z,7.10
2023-05-07T11:26:16.550Z,7.40
2023-05-07T11:28:44.637Z,11.23
2023-05-07T11:31:12.574Z,9.73
2023-05-07T11:33:40.909Z,9.38
2023-05-07T11:36:12.258Z,7.93
2023-05-07T11:38:44.904Z,11.32
2023-05-07T11:41:11.493Z,14.00
2023-05-07T11:43:38.175Z,7.63
2023-05-07T11:46:12.608Z,12.48
2023-05-07T11:48:39.992Z,11.40
2023-05-07T11:51:09.867Z,13.52
2023-05-07T11:53:38.725Z,13.48
2023-05-07T11:56:09.240Z,10.52
2023-05-07T11:58:36.173Z,8.07
2023-05-07T12:01:02.715Z,9.68
2023-05-07T12:03:31.710Z,10.35
2023-05-07T12:06:00.575Z,12.98
2023-05-07T12:08:27.212Z,13.38
2023-05-07T12:10:55.001Z,6.55
2023-05-07T12:13:26.980Z,8.45
2023-05-07T12:15:55.190Z,7.50
2023-05-07T12:18:22.779Z,9.45
2023-05-07T12:20:50.124Z,10.10
2023-05-07T12:23:18.697Z,8.93
2023-05-07T12:25:48.489Z,7.93
2023-05-07T12:28:19.364Z,9.70
2023-05-07T12:30:51.298Z,8.55
2023-05-07T12:33:19.364Z,8.30
2023-05-07T12:35:45.923Z,8.52
2023-05-07T12:38:14.041Z,7.57
2023-05-07T12:40:43.389Z,6.85
2023-05-07T12:43:18.537Z,10.00
2023-05-07T12:45:47.370Z,10.35
2023-05-07T12:48:14.104Z,12.23
2023-05-07T12:50:41.025Z,9.15
2023-05-07T12:53:09.000Z,10.10
2023-05-07T12:55:47.529Z,10.32
2023-05-07T12:58:22.172Z,9.63
2023-05-07T13:00:50.815Z,10.25
2023-05-07T13:03:26.820Z,10.40
2023-05-07T13:05:58.837Z,10.85
2023-05-07T13:08:32.758Z,8.00
2023-05-07T13:11:01.331Z,14.07
2023-05-07T13:13:30.189Z,7.93
2023-05-07T13:15:58.514Z,10.30
2023-05-07T13:18:27.018Z,8.80
2023-05-07T13:20:56.660Z,16.63
2023-05-07T13:23:23.909Z,7.53
2023-05-07T13:25:51.356Z,8.15
2023-05-07T13:28:18.073Z,10.40
2023-05-07T13:30:45.121Z,11.60
2023-05-07T13:33:11.883Z,8.60
2023-05-07T13:35:38.634Z,8.85
2023-05-07T13:38:05.784Z,8.32
2023-05-07T13:40:32.513Z,8.40
2023-05-07T13:43:02.697Z,10.65
2023-05-07T13:45:33.173Z,10.48
2023-05-07T13:47:59.950Z,9.85
2023-05-07T13:50:28.021Z,6.55
2023-05-07T13:52:54.645Z,8.10
2023-05-07T13:55:23.368Z,9.18
2023-05-07T13:57:57.810Z,7.32
2023-05-07T14:00:25.326Z,9.90
2023-05-07T14:02:51.981Z,8.07
2023-05-07T14:05:18.996Z,9.45
2023-05-07T14:07:46.634Z,9.45
2023-05-07T14:10:14.233Z,8.13
2023-05-07T14:12:41.536Z,10.18
2023-05-07T14:15:08.716Z,9.02
2023-05-07T14:17:35.620Z,8.48
2023-05-07T14:20:02.234Z,7.07
2023-05-07T14:22:28.811Z,6.53
2023-05-07T14:25:05.886Z,8.45
2023-05-07T14:27:33.326Z,8.30
2023-05-07T14:29:59.826Z,7.00
2023-05-07T14:32:26.409Z,9.20
2023-05-07T14:34:52.976Z,6.70
2023-05-07T14:37:20.761Z,6.00
2023-05-07T14:39:49.861Z,8.15
2023-05-07T14:42:17.263Z,8.32
2023-05-07T14:44:45.585Z,7.20
2023-05-07T14:47:12.102Z,7.20
2023-05-07T14:49:38.920Z,6.50
2023-05-07T14:52:07.010Z,6.25
2023-05-07T14:54:38.912Z,7.90
2023-05-07T14:57:06.747Z,7.30
2023-05-07T14:59:33.444Z,6.53
2023-05-07T15:02:00.319Z,8.18
2023-05-07T15:04:26.993Z,6.00
2023-05-07T15:06:55.066Z,10.30
2023-05-07T15:09:21.624Z,9.35
2023-05-07T15:11:48.136Z,6.90
2023-05-07T15:14:14.700Z,17.15
2023-05-07T15:16:41.316Z,7.53
2023-05-07T15:19:07.967Z,12.23
2023-05-07T15:21:35.765Z,6.85
2023-05-07T15:24:02.987Z,7.45
2023-05-07T15:26:30.144Z,6.97
2023-05-07T15:28:59.740Z,1.00
2023-05-07T15:31:26.678Z,0.10
2023-05-07T15:33:53.372Z,0.15
2023-05-07T15:36:21.188Z,0.20
2023-05-07T15:38:47.774Z,0.30
2023-05-07T15:41:14.358Z,0.20
2023-05-07T15:43:46.913Z,0.10
2023-05-07T15:46:17.918Z,0.10
2023-05-07T15:48:44.541Z,0.10
2023-05-07T15:51:11.381Z,0.10
2023-05-07T15:53:38.585Z,0.10
2023-05-07T15:56:05.446Z,0.10
2023-05-07T15:58:32.094Z,0.20
2023-05-07T16:00:58.914Z,0.10
2023-05-07T16:03:27.537Z,0.10
2023-05-07T16:05:54.446Z,0.15
2023-05-07T16:08:21.175Z,0.30
2023-05-07T16:10:47.735Z,0.10
2023-05-07T16:13:14.494Z,0.57
2023-05-07T16:15:41.152Z,0.10
2023-05-07T16:18:07.822Z,0.10
2023-05-07T16:20:34.980Z,0.22
2023-05-07T16:23:02.056Z,0.10
2023-05-07T16:25:28.666Z,0.20
2023-05-07T16:27:55.880Z,0.20
2023-05-07T16:30:22.425Z,0.10
2023-05-07T16:32:49.070Z,0.28
2023-05-07T16:35:15.746Z,0.10
2023-05-07T16:37:42.444Z,0.20
2023-05-07T16:40:09.600Z,0.20
2023-05-07T16:42:36.918Z,0.10
2023-05-07T16:45:06.790Z,0.30
2023-05-07T16:47:33.466Z,0.10
2023-05-07T16:50:00.650Z,0.10
2023-05-07T16:52:28.937Z,0.10
2023-05-07T16:54:58.247Z,0.20
2023-05-07T16:57:25.564Z,0.20
2023-05-07T16:59:52.572Z,0.20
2023-05-07T17:02:19.711Z,0.10
2023-05-07T17:04:46.213Z,0.10
2023-05-07T17:07:12.861Z,0.17
2023-05-07T17:09:39.409Z,0.10
2023-05-07T17:12:05.986Z,0.20
2023-05-07T17:14:32.489Z,0.10
2023-05-07T17:16:59.104Z,0.10
2023-05-07T17:19:25.714Z,0.17
2023-05-07T17:21:52.275Z,0.10
2023-05-07T17:24:18.816Z,0.22
2023-05-07T17:26:47.769Z,0.65
2023-05-07T17:29:14.297Z,0.20
2023-05-07T17:31:41.104Z,0.20
2023-05-07T17:34:07.704Z,0.10
2023-05-07T17:36:34.242Z,0.10
2023-05-07T17:39:00.937Z,0.10
2023-05-07T17:41:27.532Z,0.20
2023-05-07T17:43:54.060Z,0.10
2023-05-07T17:46:20.950Z,0.25
2023-05-07T17:48:47.725Z,0.10
2023-05-07T17:51:14.258Z,0.10
2023-05-07T17:53:40.827Z,0.10
2023-05-07T17:56:07.373Z,0.20
2023-05-07T17:58:38.454Z,0.10
2023-05-07T18:01:14.443Z,0.10
2023-05-07T18:03:41.406Z,0.10
2023-05-07T18:06:10.087Z,0.10
2023-05-07T18:08:36.830Z,0.10
2023-05-07T18:11:05.691Z,0.10
2023-05-07T18:13:32.205Z,0.10
2023-05-07T18:15:58.788Z,0.17
2023-05-07T18:18:28.116Z,0.10
2023-05-07T18:20:54.983Z,0.20
2023-05-07T18:23:21.473Z,0.10
2023-05-07T18:25:48.046Z,0.10
2023-05-07T18:28:14.619Z,0.30
2023-05-07T18:30:41.301Z,0.20
2023-05-07T18:33:08.177Z,0.20
2023-05-07T18:35:34.984Z,0.10
2023-05-07T18:38:01.472Z,0.10
2023-05-07T18:40:28.069Z,0.10
2023-05-07T18:42:55.373Z,0.10
2023-05-07T18:45:21.970Z,0.10
2023-05-07T18:47:48.559Z,0.10
2023-05-07T18:50:16.362Z,0.10
2023-05-07T18:52:42.867Z,0.32
2023-05-07T18:55:11.610Z,0.10
2023-05-07T18:57:38.131Z,0.15
2023-05-07T19:00:06.622Z,0.10
2023-05-07T19:02:33.234Z,0.10
2023-05-07T19:04:59.797Z,0.10
2023-05-07T19:07:26.300Z,0.10
2023-05-07T19:10:19.115Z,0.10
2023-05-07T19:12:39.432Z,0.10
2023-05-07T19:15:06.577Z,0.20
2023-05-07T19:17:33.189Z,0.20
2023-05-07T19:19:59.738Z,0.08
2023-05-07T19:22:26.374Z,0.40
2023-05-07T19:24:53.607Z,0.10
2023-05-07T19:27:20.202Z,0.10
2023-05-07T19:29:47.040Z,0.20
2023-05-07T19:32:13.617Z,0.10
2023-05-07T19:34:40.234Z,0.10
2023-05-07T19:37:06.801Z,0.10
2023-05-07T19:39:33.362Z,0.10
2023-05-07T19:41:59.945Z,0.10
2023-05-07T19:44:26.499Z,0.22
2023-05-07T19:46:53.081Z,0.10
2023-05-07T19:49:19.700Z,0.10
2023-05-07T19:51:46.295Z,0.20
2023-05-07T19:54:12.951Z,0.20
2023-05-07T19:56:41.598Z,0.10
2023-05-07T19:59:08.439Z,0.10
2023-05-07T20:01:36.089Z,0.28
2023-05-07T20:04:02.650Z,0.65
2023-05-07T20:06:29.235Z,0.10
2023-05-07T20:08:55.777Z,0.10
2023-05-07T20:11:23.206Z,0.10
2023-05-07T20:13:49.872Z,0.30
2023-05-07T20:16:16.594Z,0.10
2023-05-07T20:18:43.232Z,0.50
2023-05-07T20:21:09.844Z,0.10
2023-05-07T20:23:36.395Z,0.20
2023-05-07T20:26:02.925Z,0.20
2023-05-07T20:28:29.800Z,0.10
2023-05-07T20:30:56.388Z,0.20
2023-05-07T20:33:22.937Z,0.75
2023-05-07T20:35:49.753Z,0.20
2023-05-07T20:38:16.341Z,0.10
2023-05-07T20:40:42.889Z,0.20
2023-05-07T20:43:09.455Z,0.10
2023-05-07T20:45:36.099Z,0.10
2023-05-07T20:48:03.036Z,0.10
2023-05-07T20:50:29.890Z,0.10
2023-05-07T20:52:56.483Z,0.13
2023-05-07T20:55:23.038Z,0.10
2023-05-07T20:57:49.582Z,0.10
2023-05-07T21:00:17.333Z,0.10
2023-05-07T21:02:45.249Z,0.10
2023-05-07T21:05:11.916Z,0.10
2023-05-07T21:07:38.505Z,0.20
2023-05-07T21:10:06.111Z,0.30
2023-05-07T21:12:32.722Z,0.10
2023-05-07T21:14:59.318Z,0.10
2023-05-07T21:17:25.953Z,0.50
2023-05-07T21:19:52.899Z,0.10
2023-05-07T21:22:19.402Z,0.10
2023-05-07T21:24:45.963Z,0.20
2023-05-07T21:27:12.518Z,0.13
2023-05-07T21:29:39.457Z,0.20
2023-05-07T21:32:06.239Z,0.10
2023-05-07T21:34:32.826Z,0.30
2023-05-07T21:36:59.378Z,0.10
2023-05-07T21:39:26.029Z,0.30
2023-05-07T21:41:52.672Z,0.20
2023-05-07T21:44:19.306Z,0.20
2023-05-07T21:46:45.922Z,0.32
2023-05-07T21:49:12.737Z,0.20
2023-05-07T21:51:39.313Z,0.10
2023-05-07T21:54:06.858Z,0.57
2023-05-07T21:56:33.386Z,0.68
2023-05-07T21:58:59.953Z,0.10
2023-05-07T22:01:26.532Z,0.52
2023-05-07T22:03:53.303Z,0.10
2023-05-07T22:06:22.060Z,0.45
2023-05-07T22:08:49.791Z,0.28
2023-05-07T22:11:16.689Z,0.52
2023-05-07T22:13:43.380Z,0.10
2023-05-07T22:16:09.979Z,0.20
2023-05-07T22:18:36.620Z,0.10
2023-05-07T22:21:03.336Z,0.40
2023-05-07T22:23:29.860Z,0.15
2023-05-07T22:25:56.384Z,0.70
2023-05-07T22:28:22.944Z,0.10
2023-05-07T22:30:51.120Z,0.17
2023-05-07T22:33:17.732Z,0.10
2023-05-07T22:35:44.293Z,0.77
2023-05-07T22:38:10.842Z,0.28
2023-05-07T22:40:37.419Z,0.28
2023-05-07T22:43:04.126Z,0.10
2023-05-07T22:45:30.780Z,0.20
2023-05-07T22:47:57.329Z,0.40
2023-05-07T22:50:24.008Z,0.20
2023-05-07T22:52:50.718Z,0.55
2023-05-07T22:55:17.415Z,0.10
2023-05-07T22:57:44.046Z,0.55
2023-05-07T23:00:11.800Z,0.93
2023-05-07T23:02:38.713Z,0.30
2023-05-07T23:05:05.553Z,0.10
2023-05-07T23:07:32.153Z,0.30
2023-05-07T23:09:58.912Z,4.10
2023-05-07T23:12:25.532Z,0.20
2023-05-07T23:14:52.088Z,0.20
2023-05-07T23:17:18.613Z,0.80
2023-05-07T23:19:45.156Z,0.50
2023-05-07T23:22:12.231Z,0.40
2023-05-07T23:24:39.140Z,0.68
2023-05-07T23:27:06.085Z,0.30
2023-05-07T23:29:32.925Z,0.40
2023-05-07T23:32:00.231Z,1.42
2023-05-07T23:34:26.990Z,0.25
2023-05-07T23:36:54.245Z,0.50
2023-05-07T23:39:20.904Z,0.45
2023-05-07T23:41:47.535Z,0.10
2023-05-07T23:44:16.304Z,0.30
2023-05-07T23:46:44.414Z,0.88
2023-05-07T23:49:11.104Z,0.75
2023-05-07T23:51:37.844Z,0.77
2023-05-07T23:54:04.876Z,0.30
2023-05-07T23:56:31.458Z,0.60
2023-05-07T23:58:58.182Z,0.60
